Time;durP1;ratioP1;P1;durP2;ratioP2;P2;SDS_P1;SDS_P2;PMS_P1;PMS_P2;Temp;Humidity;BMP_temperature;BMP_pressure;BME280_temperature;BME280_humidity;BME280_pressure;Samples;Min_cycle;Max_cycle;Signal;HPM_P1;HPM_P2
2024/01/20 00:01:21;;;;;;;;;45.75;29.25;;;;;-144.24;100.00;114865.94;5033758;28;45737;-73
2024/01/20 00:03:47;;;;;;;;;34.25;27.25;;;;;-144.24;100.00;114865.94;5037135;28;45321;-69
2024/01/20 00:06:12;;;;;;;;;29.50;24.25;;;;;-144.24;100.00;114865.94;5017236;28;68243;-72
2024/01/20 00:08:37;;;;;;;;;36.25;30.75;;;;;-144.24;100.00;114865.94;5034445;28;69120;-72
2024/01/20 00:11:03;;;;;;;;;35.00;31.00;;;;;-144.24;100.00;114865.94;5036508;28;45356;-74
2024/01/20 00:13:28;;;;;;;;;34.75;26.75;;;;;-144.24;100.00;114865.94;5029581;28;45416;-70
2024/01/20 00:15:53;;;;;;;;;30.25;27.50;;;;;-144.24;100.00;114865.94;5035093;28;63871;-73
2024/01/20 00:18:19;;;;;;;;;35.75;26.00;;;;;-144.24;100.00;114865.94;5034137;28;63564;-71
2024/01/20 00:20:45;;;;;;;;;33.50;24.50;;;;;-144.24;100.00;114865.94;5036772;28;45410;-73
2024/01/20 00:23:11;;;;;;;;;40.00;30.75;;;;;-144.24;100.00;114865.94;5028897;28;45380;-71
2024/01/20 00:25:37;;;;;;;;;38.50;25.50;;;;;-144.24;100.00;114865.94;5027511;28;46702;-71
2024/01/20 00:28:03;;;;;;;;;33.50;29.75;;;;;-144.24;100.00;114865.94;5015928;28;71066;-71
2024/01/20 00:30:29;;;;;;;;;33.75;27.50;;;;;-144.24;100.00;114865.94;5035676;28;45347;-74
2024/01/20 00:32:54;;;;;;;;;46.75;34.25;;;;;-144.24;100.00;114865.94;5032890;28;45525;-71
2024/01/20 00:35:19;;;;;;;;;32.00;27.75;;;;;-144.24;100.00;114865.94;5034867;28;65754;-71
2024/01/20 00:37:45;;;;;;;;;30.75;25.25;;;;;-144.24;100.00;114865.94;5034062;28;45459;-74
2024/01/20 00:40:11;;;;;;;;;40.75;30.50;;;;;-144.24;100.00;114865.94;5034996;28;53549;-75
2024/01/20 00:42:36;;;;;;;;;30.50;29.00;;;;;-144.24;100.00;114865.94;5033383;28;45380;-71
2024/01/20 00:45:03;;;;;;;;;32.75;25.75;;;;;-144.24;100.00;114865.94;5026330;28;60284;-71
2024/01/20 00:47:29;;;;;;;;;31.75;28.75;;;;;-144.24;100.00;114865.94;5032988;28;45572;-71
2024/01/20 00:49:54;;;;;;;;;40.50;35.50;;;;;-144.24;100.00;114865.94;5026762;28;45463;-71
2024/01/20 00:52:20;;;;;;;;;36.75;31.25;;;;;-144.24;100.00;114865.94;5034275;28;45396;-71
2024/01/20 00:54:45;;;;;;;;;34.50;24.50;;;;;-144.24;100.00;114865.94;5032534;28;67328;-73
2024/01/20 00:57:10;;;;;;;;;36.50;28.25;;;;;-144.24;100.00;114865.94;5031200;28;46004;-74
2024/01/20 00:59:36;;;;;;;;;33.00;26.50;;;;;-144.24;100.00;114865.94;5025976;28;66749;-70
2024/01/20 01:02:01;;;;;;;;;36.00;28.25;;;;;-144.24;100.00;114865.94;5033502;28;45484;-74
2024/01/20 01:04:27;;;;;;;;;39.25;29.75;;;;;-144.24;100.00;114865.94;5034184;28;73644;-74
2024/01/20 01:06:52;;;;;;;;;42.25;27.75;;;;;-144.24;100.00;114865.94;5033048;28;45483;-70
2024/01/20 01:09:17;;;;;;;;;37.75;27.00;;;;;-144.24;100.00;114865.94;5029133;28;45436;-70
2024/01/20 01:11:43;;;;;;;;;31.00;25.75;;;;;-144.24;100.00;114865.94;5034291;28;61556;-72
2024/01/20 01:14:08;;;;;;;;;42.75;34.25;;;;;-144.24;100.00;114865.94;5033079;28;46499;-73
2024/01/20 01:16:33;;;;;;;;;33.25;23.50;;;;;-144.24;100.00;114865.94;5033053;28;63568;-73
2024/01/20 01:18:59;;;;;;;;;28.25;24.00;;;;;-144.24;100.00;114865.94;5033441;28;56548;-74
2024/01/20 01:21:24;;;;;;;;;34.25;23.75;;;;;-144.24;100.00;114865.94;5034083;28;45392;-70
2024/01/20 01:23:49;;;;;;;;;37.75;25.25;;;;;-144.24;100.00;114865.94;5033648;28;72911;-75
2024/01/20 01:26:15;;;;;;;;;28.50;22.50;;;;;-144.24;100.00;114865.94;5033656;28;73145;-70
2024/01/20 01:28:41;;;;;;;;;25.50;21.50;;;;;-144.24;100.00;114865.94;5027565;28;45476;-70
2024/01/20 01:31:06;;;;;;;;;31.25;24.00;;;;;-144.24;100.00;114865.94;5033706;28;60042;-73
2024/01/20 01:33:31;;;;;;;;;38.25;26.00;;;;;-144.24;100.00;114865.94;5033071;28;72199;-73
2024/01/20 01:35:57;;;;;;;;;34.00;24.50;;;;;-144.24;100.00;114865.94;5034777;28;45535;-73
2024/01/20 01:38:22;;;;;;;;;36.25;26.50;;;;;-144.24;100.00;114865.94;5033281;28;63269;-70
2024/01/20 01:40:47;;;;;;;;;27.00;22.50;;;;;-144.24;100.00;114865.94;5032399;28;50451;-70
2024/01/20 01:43:13;;;;;;;;;38.50;27.00;;;;;-144.24;100.00;114865.94;5032370;28;75102;-70
2024/01/20 01:45:38;;;;;;;;;35.00;24.50;;;;;-144.24;100.00;114865.94;5034222;28;59342;-71
2024/01/20 01:48:03;;;;;;;;;33.50;18.75;;;;;-144.24;100.00;114865.94;5030890;28;67948;-70
2024/01/20 01:50:29;;;;;;;;;28.00;24.75;;;;;-144.24;100.00;114865.94;5034167;28;45272;-71
2024/01/20 01:52:54;;;;;;;;;28.50;23.00;;;;;-144.24;100.00;114865.94;5033776;28;45534;-70
2024/01/20 01:55:22;;;;;;;;;33.25;28.00;;;;;-144.24;100.00;114865.94;5017065;28;45470;-73
2024/01/20 01:57:53;;;;;;;;;32.25;27.50;;;;;-144.24;100.00;114865.94;5016124;28;45535;-70
2024/01/20 02:00:19;;;;;;;;;30.75;27.00;;;;;-144.24;100.00;114865.94;5030609;28;45485;-70
2024/01/20 02:02:44;;;;;;;;;32.00;25.25;;;;;-144.24;100.00;114865.94;5034477;28;46372;-74
2024/01/20 02:05:10;;;;;;;;;27.25;24.25;;;;;-144.24;100.00;114865.94;5031642;28;71506;-73
2024/01/20 02:07:37;;;;;;;;;39.25;29.25;;;;;-144.24;100.00;114865.94;5027549;28;45503;-72
2024/01/20 02:10:04;;;;;;;;;23.00;22.00;;;;;-144.24;100.00;114865.94;5034098;28;45421;-70
2024/01/20 02:12:30;;;;;;;;;34.00;21.50;;;;;-144.24;100.00;114865.94;5019319;28;45360;-71
2024/01/20 02:14:56;;;;;;;;;34.75;27.25;;;;;-144.24;100.00;114865.94;5036498;28;45501;-71
2024/01/20 02:17:21;;;;;;;;;41.00;27.00;;;;;-144.24;100.00;114865.94;5034567;28;48480;-70
2024/01/20 02:19:46;;;;;;;;;22.00;19.50;;;;;-144.24;100.00;114865.94;5037950;28;45430;-73
2024/01/20 02:22:13;;;;;;;;;19.75;18.00;;;;;-144.24;100.00;114865.94;5036982;28;46588;-73
2024/01/20 02:24:40;;;;;;;;;31.25;27.00;;;;;-144.24;100.00;114865.94;5035826;28;45472;-70
2024/01/20 02:27:06;;;;;;;;;28.75;21.25;;;;;-144.24;100.00;114865.94;5031725;28;45474;-72
2024/01/20 02:29:32;;;;;;;;;40.25;25.75;;;;;-144.24;100.00;114865.94;5033872;28;45501;-75
2024/01/20 02:31:57;;;;;;;;;25.50;22.50;;;;;-144.24;100.00;114865.94;5034740;28;46627;-71
2024/01/20 02:34:22;;;;;;;;;30.25;26.00;;;;;-144.24;100.00;114865.94;5033026;28;54400;-70
2024/01/20 02:36:48;;;;;;;;;28.75;15.00;;;;;-144.24;100.00;114865.94;5035189;28;59500;-70
2024/01/20 02:39:13;;;;;;;;;33.50;21.75;;;;;-144.24;100.00;114865.94;5034588;28;54113;-72
2024/01/20 02:41:38;;;;;;;;;21.75;20.00;;;;;-144.24;100.00;114865.94;5035214;28;68609;-71
2024/01/20 02:44:04;;;;;;;;;34.75;27.50;;;;;-144.24;100.00;114865.94;5036668;28;52233;-75
2024/01/20 02:46:30;;;;;;;;;40.00;26.25;;;;;-144.24;100.00;114865.94;5035159;28;45458;-74
2024/01/20 02:48:55;;;;;;;;;26.25;22.75;;;;;-144.24;100.00;114865.94;5034394;28;56181;-71
2024/01/20 02:51:20;;;;;;;;;30.75;24.25;;;;;-144.24;100.00;114865.94;5034500;28;73890;-70
2024/01/20 02:53:46;;;;;;;;;38.50;24.75;;;;;-144.24;100.00;114865.94;5035991;28;45506;-71
2024/01/20 02:56:12;;;;;;;;;42.50;26.50;;;;;-144.24;100.00;114865.94;5035785;28;63829;-72
2024/01/20 02:58:37;;;;;;;;;39.00;22.25;;;;;-144.24;100.00;114865.94;5036244;28;45478;-72
2024/01/20 03:01:06;;;;;;;;;25.50;19.25;;;;;-144.24;100.00;114865.94;5032949;28;46559;-73
2024/01/20 03:03:31;;;;;;;;;33.75;27.75;;;;;-144.24;100.00;114865.94;5036748;28;45373;-77
2024/01/20 03:05:56;;;;;;;;;28.25;21.25;;;;;-144.24;100.00;114865.94;5035446;28;65714;-70
2024/01/20 03:08:22;;;;;;;;;29.00;22.00;;;;;-144.24;100.00;114865.94;5034995;28;61579;-74
2024/01/20 03:10:47;;;;;;;;;30.00;22.75;;;;;-144.24;100.00;114865.94;5033544;28;63909;-71
2024/01/20 03:13:12;;;;;;;;;32.25;25.25;;;;;-144.24;100.00;114865.94;5034228;28;59145;-72
2024/01/20 03:15:38;;;;;;;;;35.50;24.00;;;;;-144.24;100.00;114865.94;5036227;28;45283;-74
2024/01/20 03:18:03;;;;;;;;;23.00;20.25;;;;;-144.24;100.00;114865.94;5036290;28;58047;-72
2024/01/20 03:20:29;;;;;;;;;26.50;20.50;;;;;-144.24;100.00;114865.94;5035887;28;46612;-70
2024/01/20 03:22:54;;;;;;;;;28.00;20.75;;;;;-144.24;100.00;114865.94;5029314;28;70443;-70
2024/01/20 03:25:19;;;;;;;;;27.25;21.25;;;;;-144.24;100.00;114865.94;5035809;28;62574;-70
2024/01/20 03:27:45;;;;;;;;;33.75;26.50;;;;;-144.24;100.00;114865.94;5030922;28;58576;-71
2024/01/20 03:30:10;;;;;;;;;28.75;21.25;;;;;-144.24;100.00;114865.94;5035780;28;71218;-71
2024/01/20 03:32:35;;;;;;;;;35.50;23.75;;;;;-144.24;100.00;114865.94;5033014;28;45482;-75
2024/01/20 03:35:01;;;;;;;;;30.75;22.75;;;;;-144.24;100.00;114865.94;5035082;28;64266;-72
2024/01/20 03:37:26;;;;;;;;;21.75;18.50;;;;;-144.24;100.00;114865.94;5032657;28;45531;-73
2024/01/20 03:39:52;;;;;;;;;29.25;24.75;;;;;-144.24;100.00;114865.94;5037104;28;46488;-71
2024/01/20 03:42:18;;;;;;;;;27.50;21.50;;;;;-144.24;100.00;114865.94;5032216;28;57318;-72
2024/01/20 03:44:43;;;;;;;;;27.75;22.00;;;;;-144.24;100.00;114865.94;5033748;28;45382;-73
2024/01/20 03:47:09;;;;;;;;;34.25;24.50;;;;;-144.24;100.00;114865.94;5034801;28;64180;-71
2024/01/20 03:49:34;;;;;;;;;29.25;24.25;;;;;-144.24;100.00;114865.94;5036611;28;47315;-70
2024/01/20 03:51:59;;;;;;;;;29.25;26.00;;;;;-144.24;100.00;114865.94;5035556;28;45514;-70
2024/01/20 03:54:25;;;;;;;;;30.50;21.75;;;;;-144.24;100.00;114865.94;5035313;28;67025;-70
2024/01/20 03:56:50;;;;;;;;;24.25;21.00;;;;;-144.24;100.00;114865.94;5034407;28;60341;-70
2024/01/20 03:59:16;;;;;;;;;29.75;21.00;;;;;-144.24;100.00;114865.94;5033143;28;63486;-74
2024/01/20 04:01:41;;;;;;;;;29.00;22.75;;;;;-144.24;100.00;114865.94;5034143;28;45783;-74
2024/01/20 04:04:06;;;;;;;;;27.75;21.00;;;;;-144.24;100.00;114865.94;5034029;28;67729;-74
2024/01/20 04:06:32;;;;;;;;;27.25;20.25;;;;;-144.24;100.00;114865.94;5036494;28;45533;-73
2024/01/20 04:08:57;;;;;;;;;25.75;21.00;;;;;-144.24;100.00;114865.94;5034324;28;71402;-73
2024/01/20 04:11:23;;;;;;;;;22.75;19.00;;;;;-144.24;100.00;114865.94;5032660;28;70537;-72
2024/01/20 04:13:48;;;;;;;;;30.25;23.50;;;;;-144.24;100.00;114865.94;5035304;28;45400;-74
2024/01/20 04:16:13;;;;;;;;;27.50;20.00;;;;;-144.24;100.00;114865.94;5034470;28;62700;-70
2024/01/20 04:18:39;;;;;;;;;27.00;21.50;;;;;-144.24;100.00;114865.94;5035159;28;71300;-70
2024/01/20 04:21:04;;;;;;;;;34.00;19.75;;;;;-144.24;100.00;114865.94;5034256;28;70155;-72
2024/01/20 04:23:29;;;;;;;;;29.25;22.00;;;;;-144.24;100.00;114865.94;5033692;28;65890;-69
2024/01/20 04:25:55;;;;;;;;;23.50;22.75;;;;;-144.24;100.00;114865.94;5029997;28;59928;-71
2024/01/20 04:28:20;;;;;;;;;26.50;23.25;;;;;-144.24;100.00;114865.94;5035727;28;48266;-71
2024/01/20 04:30:45;;;;;;;;;30.75;20.75;;;;;-144.24;100.00;114865.94;5034297;28;62180;-71
2024/01/20 04:33:11;;;;;;;;;25.00;19.00;;;;;-144.24;100.00;114865.94;5034719;28;45448;-71
2024/01/20 04:35:36;;;;;;;;;25.25;17.25;;;;;-144.24;100.00;114865.94;5035609;28;45618;-71
2024/01/20 04:38:02;;;;;;;;;17.00;15.00;;;;;-144.24;100.00;114865.94;5033914;28;45641;-73
2024/01/20 04:40:27;;;;;;;;;29.25;24.75;;;;;-144.24;100.00;114865.94;5034304;28;45224;-72
2024/01/20 04:42:52;;;;;;;;;24.00;18.50;;;;;-144.24;100.00;114865.94;5034873;28;58355;-71
2024/01/20 04:45:18;;;;;;;;;25.50;21.00;;;;;-144.24;100.00;114865.94;5033081;28;67306;-73
2024/01/20 04:47:43;;;;;;;;;31.00;21.25;;;;;-144.24;100.00;114865.94;5035817;28;46265;-72
2024/01/20 04:50:08;;;;;;;;;14.00;11.25;;;;;-144.24;100.00;114865.94;5030493;28;62221;-71
2024/01/20 04:52:34;;;;;;;;;27.25;21.50;;;;;-144.24;100.00;114865.94;5035086;28;45456;-74
2024/01/20 04:54:59;;;;;;;;;37.25;21.75;;;;;-144.24;100.00;114865.94;5027662;28;66999;-74
2024/01/20 04:57:24;;;;;;;;;28.00;21.75;;;;;-144.24;100.00;114865.94;5033738;28;69728;-71
2024/01/20 04:59:49;;;;;;;;;28.50;23.25;;;;;-144.24;100.00;114865.94;5031615;28;45355;-71
2024/01/20 05:02:15;;;;;;;;;25.50;21.50;;;;;-144.24;100.00;114865.94;5031829;28;63718;-71
2024/01/20 05:04:40;;;;;;;;;26.50;16.00;;;;;-144.24;100.00;114865.94;5035652;28;45546;-71
2024/01/20 05:07:05;;;;;;;;;30.25;23.75;;;;;-144.24;100.00;114865.94;5033566;28;45516;-72
2024/01/20 05:09:31;;;;;;;;;22.75;15.75;;;;;-144.24;100.00;114865.94;5032802;28;72666;-72
2024/01/20 05:11:56;;;;;;;;;22.75;18.25;;;;;-144.24;100.00;114865.94;5034653;28;46995;-71
2024/01/20 05:14:21;;;;;;;;;25.00;20.00;;;;;-144.24;100.00;114865.94;5030654;28;64975;-71
2024/01/20 05:16:47;;;;;;;;;25.25;18.50;;;;;-144.24;100.00;114865.94;5035243;28;46157;-71
2024/01/20 05:19:12;;;;;;;;;28.00;19.50;;;;;-144.24;100.00;114865.94;5033642;28;45436;-76
2024/01/20 05:21:38;;;;;;;;;29.00;21.25;;;;;-144.24;100.00;114865.94;5033748;28;65426;-71
2024/01/20 05:24:06;;;;;;;;;33.25;26.25;;;;;-144.24;100.00;114865.94;5031419;28;45492;-71
2024/01/20 05:26:32;;;;;;;;;32.25;20.25;;;;;-144.24;100.00;114865.94;5033174;28;46432;-72
2024/01/20 05:28:57;;;;;;;;;27.25;19.50;;;;;-144.24;100.00;114865.94;5031080;28;57969;-72
2024/01/20 05:31:31;;;;;;;;;28.50;20.75;;;;;-144.24;100.00;114865.94;5014647;28;65991;-70
2024/01/20 05:33:57;;;;;;;;;30.00;19.50;;;;;-144.24;100.00;114865.94;5024495;28;45397;-71
2024/01/20 05:36:22;;;;;;;;;21.50;19.00;;;;;-144.24;100.00;114865.94;5032853;28;46336;-71
2024/01/20 05:38:47;;;;;;;;;22.50;16.75;;;;;-144.24;100.00;114865.94;5031695;28;69846;-73
2024/01/20 05:41:12;;;;;;;;;19.25;16.75;;;;;-144.24;100.00;114865.94;5032477;28;66852;-71
2024/01/20 05:43:38;;;;;;;;;28.00;16.50;;;;;-144.24;100.00;114865.94;5031107;28;51037;-71
2024/01/20 05:46:06;;;;;;;;;26.25;17.25;;;;;-144.24;100.00;114865.94;5037632;28;70223;-74
2024/01/20 05:48:33;;;;;;;;;28.50;20.75;;;;;-144.24;100.00;114865.94;5036685;28;45494;-73
2024/01/20 05:50:58;;;;;;;;;23.25;20.25;;;;;-144.24;100.00;114865.94;5037564;28;45297;-71
2024/01/20 05:53:24;;;;;;;;;35.50;23.25;;;;;-144.24;100.00;114865.94;5035489;28;56515;-72
2024/01/20 05:55:49;;;;;;;;;26.00;16.50;;;;;-144.24;100.00;114865.94;5036598;28;67437;-71
2024/01/20 05:58:15;;;;;;;;;32.00;19.50;;;;;-144.24;100.00;114865.94;5032657;28;58952;-74
2024/01/20 06:00:40;;;;;;;;;25.75;22.50;;;;;-144.24;100.00;114865.94;5034321;28;45537;-76
2024/01/20 06:03:06;;;;;;;;;28.25;23.25;;;;;-144.24;100.00;114865.94;5037327;28;45461;-71
2024/01/20 06:05:31;;;;;;;;;28.50;20.00;;;;;-144.24;100.00;114865.94;5035692;28;46002;-71
2024/01/20 06:07:56;;;;;;;;;29.25;20.50;;;;;-144.24;100.00;114865.94;5036752;28;69907;-73
2024/01/20 06:10:22;;;;;;;;;21.50;16.50;;;;;-144.24;100.00;114865.94;5036407;28;45554;-72
2024/01/20 06:12:47;;;;;;;;;27.00;20.25;;;;;-144.24;100.00;114865.94;5037731;28;45344;-75
2024/01/20 06:15:13;;;;;;;;;30.75;25.00;;;;;-144.24;100.00;114865.94;5035138;28;46142;-72
2024/01/20 06:17:38;;;;;;;;;27.50;21.25;;;;;-144.24;100.00;114865.94;5036577;28;68296;-74
2024/01/20 06:20:04;;;;;;;;;31.25;19.75;;;;;-144.24;100.00;114865.94;5035408;28;45459;-73
2024/01/20 06:22:30;;;;;;;;;23.00;18.50;;;;;-144.24;100.00;114865.94;5030854;28;45384;-71
2024/01/20 06:24:55;;;;;;;;;20.50;17.50;;;;;-144.24;100.00;114865.94;5036714;28;59258;-71
2024/01/20 06:27:20;;;;;;;;;36.75;23.00;;;;;-144.24;100.00;114865.94;5031763;28;71733;-71
2024/01/20 06:29:46;;;;;;;;;30.25;23.50;;;;;-144.24;100.00;114865.94;5037746;28;45392;-71
2024/01/20 06:32:11;;;;;;;;;26.00;17.25;;;;;-144.24;100.00;114865.94;5035623;28;45368;-72
2024/01/20 06:34:36;;;;;;;;;25.00;23.00;;;;;-144.24;100.00;114865.94;5034287;28;46400;-75
2024/01/20 06:37:02;;;;;;;;;27.00;20.50;;;;;-144.24;100.00;114865.94;5036489;28;50751;-73
2024/01/20 06:39:27;;;;;;;;;34.75;21.25;;;;;-144.24;100.00;114865.94;5037352;28;45455;-71
2024/01/20 06:41:53;;;;;;;;;27.00;15.75;;;;;-144.24;100.00;114865.94;5018984;28;63835;-71
2024/01/20 06:44:18;;;;;;;;;24.25;18.75;;;;;-144.24;100.00;114865.94;5033563;28;70908;-71
2024/01/20 06:46:43;;;;;;;;;23.25;17.50;;;;;-144.24;100.00;114865.94;5036064;28;45421;-71
2024/01/20 06:49:09;;;;;;;;;27.50;22.50;;;;;-144.24;100.00;114865.94;5035124;28;52096;-75
2024/01/20 06:51:34;;;;;;;;;23.50;18.00;;;;;-144.24;100.00;114865.94;5029987;28;65457;-74
2024/01/20 06:54:00;;;;;;;;;26.50;19.50;;;;;-144.24;100.00;114865.94;5036278;28;46915;-74
2024/01/20 06:56:25;;;;;;;;;27.25;19.00;;;;;-144.24;100.00;114865.94;5036726;28;45335;-71
2024/01/20 06:58:53;;;;;;;;;31.50;23.00;;;;;-144.24;100.00;114865.94;5035659;28;45466;-71
2024/01/20 07:01:18;;;;;;;;;27.25;18.25;;;;;-144.24;100.00;114865.94;5027848;28;45888;-72
2024/01/20 07:03:44;;;;;;;;;29.50;22.00;;;;;-144.24;100.00;114865.94;5034751;28;46792;-71
2024/01/20 07:06:09;;;;;;;;;30.50;22.75;;;;;-144.24;100.00;114865.94;5035298;28;72642;-70
2024/01/20 07:08:34;;;;;;;;;31.25;23.75;;;;;-144.24;100.00;114865.94;5036336;28;58016;-71
2024/01/20 07:11:00;;;;;;;;;24.75;24.50;;;;;-144.24;100.00;114865.94;5032936;28;45373;-71
2024/01/20 07:13:25;;;;;;;;;34.50;23.00;;;;;-144.24;100.00;114865.94;5031041;28;55028;-72
2024/01/20 07:15:51;;;;;;;;;33.75;21.25;;;;;-144.24;100.00;114865.94;5030209;28;64337;-69
2024/01/20 07:18:16;;;;;;;;;30.00;24.00;;;;;-144.24;100.00;114865.94;5029268;28;45474;-71
2024/01/20 07:20:43;;;;;;;;;22.00;15.75;;;;;-144.24;100.00;114865.94;5033688;28;45397;-71
2024/01/20 07:23:09;;;;;;;;;35.25;21.75;;;;;-144.24;100.00;114865.94;5035732;28;45629;-69
2024/01/20 07:25:36;;;;;;;;;28.00;20.75;;;;;-144.24;100.00;114865.94;5035770;28;45376;-70
2024/01/20 07:28:03;;;;;;;;;33.00;22.75;;;;;-144.24;100.00;114865.94;5035444;28;45525;-70
2024/01/20 07:30:29;;;;;;;;;36.50;25.50;;;;;-144.24;100.00;114865.94;5035019;28;45456;-70
2024/01/20 07:32:57;;;;;;;;;26.75;21.50;;;;;-144.24;100.00;114865.94;5033467;28;75106;-73
2024/01/20 07:35:23;;;;;;;;;28.00;17.75;;;;;-144.24;100.00;114865.94;5032565;28;45349;-72
2024/01/20 07:37:48;;;;;;;;;19.00;13.75;;;;;-144.24;100.00;114865.94;5033139;28;62594;-69
2024/01/20 07:40:13;;;;;;;;;27.50;21.75;;;;;-144.24;100.00;114865.94;5035022;28;63856;-71
2024/01/20 07:42:40;;;;;;;;;21.25;20.25;;;;;-144.24;100.00;114865.94;5035182;28;46502;-69
2024/01/20 07:45:05;;;;;;;;;24.75;21.00;;;;;-144.24;100.00;114865.94;5035790;28;45464;-71
2024/01/20 07:47:31;;;;;;;;;35.00;22.75;;;;;-144.24;100.00;114865.94;5036495;28;45283;-70
2024/01/20 07:49:56;;;;;;;;;30.75;20.50;;;;;-144.24;100.00;114865.94;5033065;28;45503;-70
2024/01/20 07:52:21;;;;;;;;;28.25;24.50;;;;;-144.24;100.00;114865.94;5034713;28;71423;-70
2024/01/20 07:54:47;;;;;;;;;31.75;24.50;;;;;-144.24;100.00;114865.94;5035301;28;67344;-70
2024/01/20 07:57:12;;;;;;;;;27.00;19.00;;;;;-144.24;100.00;114865.94;5035164;28;60741;-72
2024/01/20 07:59:37;;;;;;;;;29.50;24.00;;;;;-144.24;100.00;114865.94;5034521;28;54441;-71
2024/01/20 08:02:04;;;;;;;;;26.25;19.50;;;;;-144.24;100.00;114865.94;5035499;28;46827;-70
2024/01/20 08:04:29;;;;;;;;;34.75;26.50;;;;;-144.24;100.00;114865.94;5035070;28;45325;-74
2024/01/20 08:06:54;;;;;;;;;23.25;18.75;;;;;-144.24;100.00;114865.94;5029244;28;45423;-70
2024/01/20 08:09:20;;;;;;;;;26.00;24.50;;;;;-144.24;100.00;114865.94;5035771;28;60169;-71
2024/01/20 08:11:45;;;;;;;;;39.50;24.25;;;;;-144.24;100.00;114865.94;5030092;28;46425;-72
2024/01/20 08:14:11;;;;;;;;;30.75;23.75;;;;;-144.24;100.00;114865.94;5036434;28;45319;-73
2024/01/20 08:16:36;;;;;;;;;38.50;25.25;;;;;-144.24;100.00;114865.94;5034713;28;45673;-71
2024/01/20 08:19:01;;;;;;;;;36.50;24.25;;;;;-144.24;100.00;114865.94;5036291;28;45434;-71
2024/01/20 08:21:26;;;;;;;;;35.00;23.50;;;;;-144.24;100.00;114865.94;5033102;28;71019;-70
2024/01/20 08:23:52;;;;;;;;;33.25;23.25;;;;;-144.24;100.00;114865.94;5033136;28;55589;-73
2024/01/20 08:26:17;;;;;;;;;38.75;25.00;;;;;-144.24;100.00;114865.94;5033041;28;49929;-70
2024/01/20 08:28:42;;;;;;;;;36.75;29.25;;;;;-144.24;100.00;114865.94;5031627;28;45426;-70
2024/01/20 08:31:08;;;;;;;;;43.50;27.50;;;;;-144.24;100.00;114865.94;5034896;28;68991;-70
2024/01/20 08:33:33;;;;;;;;;46.75;37.25;;;;;-144.24;100.00;114865.94;5033603;28;45506;-72
2024/01/20 08:35:58;;;;;;;;;42.75;35.50;;;;;-144.24;100.00;114865.94;5029858;28;65202;-70
2024/01/20 08:38:24;;;;;;;;;36.75;30.00;;;;;-144.24;100.00;114865.94;5032222;28;47202;-73
2024/01/20 08:40:49;;;;;;;;;37.50;27.00;;;;;-144.24;100.00;114865.94;5033393;28;45462;-73
2024/01/20 08:43:15;;;;;;;;;28.50;22.50;;;;;-144.24;100.00;114865.94;5028265;28;64842;-67
2024/01/20 08:45:41;;;;;;;;;31.25;27.75;;;;;-144.24;100.00;114865.94;5027358;28;45478;-69
2024/01/20 08:48:07;;;;;;;;;44.75;32.00;;;;;-144.24;100.00;114865.94;5028293;28;45507;-69
2024/01/20 08:50:32;;;;;;;;;49.75;31.50;;;;;-144.24;100.00;114865.94;5024846;28;46460;-69
2024/01/20 08:52:57;;;;;;;;;33.50;28.00;;;;;-144.24;100.00;114865.94;5021678;28;69495;-71
2024/01/20 08:55:23;;;;;;;;;47.50;32.75;;;;;-144.24;100.00;114865.94;5022323;28;58876;-67
2024/01/20 08:57:48;;;;;;;;;50.00;37.00;;;;;-144.24;100.00;114865.94;5023068;28;45494;-69
2024/01/20 09:00:16;;;;;;;;;41.75;34.25;;;;;-144.24;100.00;114865.94;5025132;28;73029;-69
2024/01/20 09:02:42;;;;;;;;;37.00;31.00;;;;;-144.24;100.00;114865.94;5025101;28;45397;-69
2024/01/20 09:05:07;;;;;;;;;45.50;29.50;;;;;-144.24;100.00;114865.94;5018934;28;47155;-69
2024/01/20 09:07:32;;;;;;;;;47.50;32.00;;;;;-144.24;100.00;114865.94;5020694;28;45639;-67
2024/01/20 09:09:58;;;;;;;;;39.75;27.75;;;;;-144.24;100.00;114865.94;5018747;28;67570;-70
2024/01/20 09:12:23;;;;;;;;;37.25;26.00;;;;;-144.24;100.00;114865.94;5023086;28;69896;-68
2024/01/20 09:14:48;;;;;;;;;42.25;26.25;;;;;-144.24;100.00;114865.94;5030806;28;65132;-68
2024/01/20 09:17:14;;;;;;;;;58.25;44.00;;;;;-144.24;100.00;114865.94;5031018;28;45590;-68
2024/01/20 09:19:39;;;;;;;;;52.75;36.00;;;;;-144.24;100.00;114865.94;5032182;28;75669;-68
2024/01/20 09:22:04;;;;;;;;;47.00;35.25;;;;;-144.24;100.00;114865.94;5033425;28;68792;-72
2024/01/20 09:24:30;;;;;;;;;37.00;27.00;;;;;-144.24;100.00;114865.94;5029102;28;65633;-68
2024/01/20 09:26:55;;;;;;;;;45.00;34.50;;;;;-144.24;100.00;114865.94;5025852;28;46742;-68
2024/01/20 09:29:20;;;;;;;;;36.50;25.75;;;;;-144.24;100.00;114865.94;5030866;28;64705;-71
2024/01/20 09:31:46;;;;;;;;;44.25;34.50;;;;;-144.24;100.00;114865.94;5037099;28;45262;-68
2024/01/20 09:34:11;;;;;;;;;36.25;28.25;;;;;-144.24;100.00;114865.94;5034700;28;45610;-70
2024/01/20 09:36:37;;;;;;;;;42.75;29.50;;;;;-144.24;100.00;114865.94;5037099;28;58696;-68
2024/01/20 09:39:04;;;;;;;;;45.75;38.00;;;;;-144.24;100.00;114865.94;5036851;28;47501;-68
2024/01/20 09:41:29;;;;;;;;;40.75;35.25;;;;;-144.24;100.00;114865.94;5035235;28;45463;-71
2024/01/20 09:43:55;;;;;;;;;46.50;35.50;;;;;-144.24;100.00;114865.94;5034899;28;45570;-67
2024/01/20 09:46:21;;;;;;;;;38.25;30.50;;;;;-144.24;100.00;114865.94;5033797;28;45815;-69
2024/01/20 09:48:50;;;;;;;;;33.25;27.50;;;;;-144.24;100.00;114865.94;5036693;28;45797;-67
2024/01/20 09:51:16;;;;;;;;;36.25;29.00;;;;;-144.24;100.00;114865.94;5033754;28;45443;-67
2024/01/20 09:53:43;;;;;;;;;43.25;32.00;;;;;-144.24;100.00;114865.94;5037293;28;45344;-67
2024/01/20 09:56:08;;;;;;;;;28.25;25.50;;;;;-144.24;100.00;114865.94;5034769;28;45600;-68
2024/01/20 09:58:35;;;;;;;;;37.50;34.00;;;;;-144.24;100.00;114865.94;5032868;28;67926;-69
2024/01/20 10:01:01;;;;;;;;;52.25;36.25;;;;;-144.24;100.00;114865.94;5024917;28;45599;-68
2024/01/20 10:03:28;;;;;;;;;37.75;28.50;;;;;-144.24;100.00;114865.94;5022990;28;47082;-70
2024/01/20 10:05:54;;;;;;;;;29.25;22.00;;;;;-144.24;100.00;114865.94;5022563;28;45293;-67
2024/01/20 10:08:19;;;;;;;;;34.50;26.25;;;;;-144.24;100.00;114865.94;5155858;22;46693;-67
2024/01/20 10:10:44;;;;;;;;;22.50;18.50;;;;;-144.24;100.00;114865.94;5063772;27;70974;-66
2024/01/20 10:13:09;;;;;;;;;23.50;19.75;;;;;-144.24;100.00;114865.94;5062213;28;65711;-70
2024/01/20 10:15:35;;;;;;;;;26.00;21.00;;;;;-144.24;100.00;114865.94;5057996;28;62403;-70
2024/01/20 10:18:09;;;;;;;;;28.50;21.75;;;;;-144.24;100.00;114865.94;5061166;28;47208;-69
2024/01/20 10:20:35;;;;;;;;;28.50;22.25;;;;;-144.24;100.00;114865.94;5064142;27;45578;-68
2024/01/20 10:23:02;;;;;;;;;40.00;24.50;;;;;-144.24;100.00;114865.94;5065680;27;45459;-70
2024/01/20 10:25:28;;;;;;;;;27.00;18.50;;;;;-144.24;100.00;114865.94;5069690;27;45567;-68
2024/01/20 10:27:53;;;;;;;;;24.00;19.75;;;;;-144.24;100.00;114865.94;5071305;27;46737;-71
2024/01/20 10:30:20;;;;;;;;;26.50;23.00;;;;;-144.24;100.00;114865.94;5066204;27;45749;-72
2024/01/20 10:32:46;;;;;;;;;25.50;20.75;;;;;-144.24;100.00;114865.94;5070255;27;46102;-69
2024/01/20 10:35:12;;;;;;;;;34.25;22.75;;;;;-144.24;100.00;114865.94;5068495;27;45427;-69
2024/01/20 10:37:40;;;;;;;;;29.00;22.50;;;;;-144.24;100.00;114865.94;5067723;27;47295;-68
2024/01/20 10:40:09;;;;;;;;;29.50;22.50;;;;;-144.24;100.00;114865.94;5050945;28;45384;-68